Time;durP1;ratioP1;P1;durP2;ratioP2;P2;SDS_P1;SDS_P2;PMS_P1;PMS_P2;Temp;Humidity;BMP_temperature;BMP_pressure;BME280_temperature;BME280_humidity;BME280_pressure;Samples;Min_cycle;Max_cycle;Signal;HPM_P1;HPM_P2
2021/12/27 00:00:34;;;;;;;0.40;0.20;;;9.60;99.90;;;;;;5111351;28;20866;-72
2021/12/27 00:03:01;;;;;;;0.40;0.20;;;9.60;99.90;;;;;;5111470;28;20404;-72
2021/12/27 00:05:28;;;;;;;0.40;0.20;;;9.60;99.90;;;;;;5111495;28;20381;-72
2021/12/27 00:07:54;;;;;;;0.40;0.20;;;9.90;99.90;;;;;;5110617;28;20376;-72
2021/12/27 00:10:21;;;;;;;0.40;0.20;;;9.70;99.90;;;;;;5111271;28;20381;-72
2021/12/27 00:12:48;;;;;;;0.40;0.20;;;9.60;99.90;;;;;;5110507;28;20392;-71
2021/12/27 00:15:14;;;;;;;0.40;0.20;;;9.60;99.90;;;;;;5111268;28;20381;-71
2021/12/27 00:17:41;;;;;;;0.40;0.20;;;9.60;99.90;;;;;;5110676;28;20433;-72
2021/12/27 00:20:10;;;;;;;0.40;0.20;;;9.40;99.90;;;;;;5111208;28;20380;-72
2021/12/27 00:22:36;;;;;;;0.40;0.20;;;9.20;99.90;;;;;;5111011;28;20403;-72
2021/12/27 00:25:03;;;;;;;0.40;0.20;;;9.20;99.90;;;;;;5110569;28;20407;-72
2021/12/27 00:27:29;;;;;;;0.40;0.20;;;9.20;99.90;;;;;;5111485;28;20376;-72
2021/12/27 00:29:55;;;;;;;0.40;0.20;;;9.20;99.90;;;;;;5110530;28;20890;-71
2021/12/27 00:32:20;;;;;;;0.40;0.20;;;9.30;99.90;;;;;;5111378;28;20381;-72
2021/12/27 00:34:46;;;;;;;0.40;0.30;;;9.30;99.90;;;;;;5091155;28;20390;-71
2021/12/27 00:37:12;;;;;;;0.40;0.20;;;9.10;99.90;;;;;;5090960;28;20370;-72
2021/12/27 00:39:38;;;;;;;0.40;0.22;;;9.20;99.90;;;;;;5090990;28;20386;-71
2021/12/27 00:42:05;;;;;;;0.40;0.20;;;9.30;99.90;;;;;;5090019;28;20410;-72
2021/12/27 00:44:32;;;;;;;0.40;0.20;;;9.40;99.90;;;;;;5090691;28;20374;-71
2021/12/27 00:46:57;;;;;;;0.40;0.20;;;9.30;99.90;;;;;;5089665;28;20827;-72
2021/12/27 00:49:24;;;;;;;0.40;0.20;;;9.30;99.90;;;;;;5090338;28;20386;-72
2021/12/27 00:51:49;;;;;;;0.40;0.20;;;9.40;99.90;;;;;;5090627;28;20486;-72
2021/12/27 00:54:15;;;;;;;0.40;0.20;;;9.30;99.90;;;;;;5089976;28;20393;-72
2021/12/27 00:56:42;;;;;;;0.40;0.20;;;9.40;99.90;;;;;;5090550;28;20409;-72
2021/12/27 00:59:07;;;;;;;0.40;0.20;;;9.50;99.90;;;;;;5090000;28;20376;-72
2021/12/27 01:01:33;;;;;;;0.40;0.20;;;9.40;99.90;;;;;;5090204;28;20461;-72
2021/12/27 01:03:59;;;;;;;0.40;0.30;;;9.30;99.90;;;;;;5090037;28;20410;-73
2021/12/27 01:06:26;;;;;;;0.40;0.20;;;9.40;99.90;;;;;;5072442;28;20393;-72
2021/12/27 01:08:52;;;;;;;0.40;0.20;;;9.50;99.90;;;;;;5090795;28;20501;-72
2021/12/27 01:11:25;;;;;;;0.40;0.20;;;9.50;99.90;;;;;;5071826;28;20378;-72
2021/12/27 01:14:08;;;;;;;0.40;0.20;;;9.40;99.90;;;;;;5090442;28;20394;-72
2021/12/27 01:16:34;;;;;;;0.40;0.20;;;9.30;99.90;;;;;;5090335;28;20720;-72
2021/12/27 01:19:00;;;;;;;0.40;0.20;;;9.20;99.90;;;;;;5090123;28;20374;-72
2021/12/27 01:21:26;;;;;;;0.40;0.20;;;9.30;99.90;;;;;;5089675;28;20374;-72
2021/12/27 01:23:53;;;;;;;0.40;0.20;;;9.20;99.90;;;;;;5090019;28;20752;-72
2021/12/27 01:26:19;;;;;;;0.40;0.20;;;9.20;99.90;;;;;;5089236;28;20433;-72
2021/12/27 01:28:45;;;;;;;0.40;0.20;;;9.20;99.90;;;;;;5090298;28;20398;-72
2021/12/27 01:31:12;;;;;;;0.40;0.20;;;9.20;99.90;;;;;;5089753;28;20721;-74
2021/12/27 01:33:39;;;;;;;0.40;0.20;;;9.40;99.90;;;;;;5099441;28;20959;-72
2021/12/27 01:36:06;;;;;;;0.40;0.20;;;9.40;99.90;;;;;;5110532;28;20380;-72
2021/12/27 01:38:35;;;;;;;0.40;0.20;;;9.50;99.90;;;;;;5109940;28;20387;-72
2021/12/27 01:41:01;;;;;;;0.40;0.20;;;9.40;99.90;;;;;;5110141;28;20892;-72
2021/12/27 01:43:29;;;;;;;0.40;0.20;;;9.70;99.90;;;;;;5109979;28;20507;-73
2021/12/27 01:45:59;;;;;;;0.40;0.30;;;9.60;99.90;;;;;;5113294;28;20441;-72
2021/12/27 01:48:30;;;;;;;0.40;0.20;;;9.40;99.90;;;;;;5113415;28;20930;-73
2021/12/27 01:50:57;;;;;;;0.40;0.20;;;9.50;99.90;;;;;;5114323;28;20934;-72
2021/12/27 01:53:26;;;;;;;0.40;0.20;;;9.60;99.90;;;;;;5113982;28;20459;-73
2021/12/27 01:55:52;;;;;;;0.40;0.20;;;9.70;99.90;;;;;;5113960;28;20377;-72
2021/12/27 01:58:20;;;;;;;0.40;0.20;;;9.70;99.90;;;;;;5114374;28;20376;-73
2021/12/27 02:00:50;;;;;;;0.40;0.20;;;9.50;99.90;;;;;;5113324;28;20744;-73
2021/12/27 02:03:18;;;;;;;0.40;0.20;;;9.40;99.90;;;;;;5114094;28;20404;-72
2021/12/27 02:05:44;;;;;;;0.40;0.20;;;9.30;99.90;;;;;;5113305;28;20372;-72
2021/12/27 02:08:10;;;;;;;0.40;0.20;;;9.10;99.90;;;;;;5113740;28;20387;-73
2021/12/27 02:10:36;;;;;;;0.40;0.30;;;8.90;99.90;;;;;;5095009;28;20439;-73
2021/12/27 02:13:02;;;;;;;0.40;0.30;;;8.50;99.90;;;;;;5113763;28;20871;-72
2021/12/27 02:15:27;;;;;;;0.40;0.20;;;8.40;99.90;;;;;;5113736;28;20445;-72
2021/12/27 02:17:54;;;;;;;0.40;0.20;;;8.30;99.90;;;;;;5112953;28;20747;-72
2021/12/27 02:20:25;;;;;;;0.40;0.20;;;8.20;99.90;;;;;;5113564;28;20414;-72
2021/12/27 02:22:55;;;;;;;0.40;0.20;;;8.10;99.90;;;;;;5112900;28;20543;-72
2021/12/27 02:25:21;;;;;;;0.40;0.20;;;8.10;99.90;;;;;;5113607;28;20456;-72
2021/12/27 02:27:48;;;;;;;0.40;0.20;;;8.00;99.90;;;;;;5112878;28;20460;-73
2021/12/27 02:30:19;;;;;;;0.50;0.50;;;7.90;99.90;;;;;;5113010;28;20483;-72
2021/12/27 02:32:47;;;;;;;0.40;0.20;;;8.00;99.90;;;;;;5111039;28;20870;-72
2021/12/27 02:35:16;;;;;;;0.40;0.20;;;7.80;99.90;;;;;;5092387;28;20383;-72
2021/12/27 02:37:42;;;;;;;0.40;0.20;;;7.70;99.90;;;;;;5092833;28;20382;-72
2021/12/27 02:40:08;;;;;;;0.40;0.20;;;7.80;99.90;;;;;;5092191;28;20378;-73
2021/12/27 02:42:34;;;;;;;0.40;0.20;;;7.80;99.90;;;;;;5092626;28;20489;-72
2021/12/27 02:45:00;;;;;;;0.40;0.20;;;7.70;99.90;;;;;;5092244;28;20797;-73
2021/12/27 02:47:25;;;;;;;0.40;0.20;;;7.60;99.90;;;;;;5092350;28;20866;-72
2021/12/27 02:49:51;;;;;;;0.40;0.20;;;7.80;99.90;;;;;;5092593;28;20461;-72
2021/12/27 02:52:16;;;;;;;0.40;0.30;;;7.70;99.90;;;;;;5091633;28;20390;-72
2021/12/27 02:54:42;;;;;;;0.40;0.20;;;8.00;99.90;;;;;;5092190;28;20390;-72
2021/12/27 02:57:09;;;;;;;0.40;0.20;;;7.60;99.90;;;;;;5091248;28;20371;-73
2021/12/27 02:59:35;;;;;;;0.40;0.20;;;7.70;99.90;;;;;;5092517;28;20767;-72
2021/12/27 03:02:01;;;;;;;0.40;0.20;;;7.60;99.90;;;;;;5091951;28;20451;-72
2021/12/27 03:04:27;;;;;;;1.10;0.70;;;7.70;99.90;;;;;;5091751;28;20465;-72
2021/12/27 03:06:52;;;;;;;0.40;0.20;;;7.70;99.90;;;;;;5092154;28;20405;-72
2021/12/27 03:09:18;;;;;;;0.40;0.40;;;7.60;99.90;;;;;;5091573;28;20378;-72
2021/12/27 03:11:46;;;;;;;0.40;0.20;;;7.60;99.90;;;;;;5092411;28;20374;-72
2021/12/27 03:14:12;;;;;;;0.40;0.20;;;7.70;99.90;;;;;;5092272;28;20374;-72
2021/12/27 03:16:37;;;;;;;0.40;0.20;;;7.70;99.90;;;;;;5091424;28;20376;-72
2021/12/27 03:19:03;;;;;;;0.40;0.20;;;7.70;99.90;;;;;;5073866;28;20392;-72
2021/12/27 03:21:29;;;;;;;0.40;0.20;;;7.70;99.90;;;;;;5091135;28;20375;-73
2021/12/27 03:23:55;;;;;;;0.40;0.28;;;7.70;99.90;;;;;;5091434;28;20433;-72
2021/12/27 03:26:21;;;;;;;0.40;0.20;;;7.70;99.90;;;;;;5091929;28;20478;-72
2021/12/27 03:28:47;;;;;;;0.40;0.20;;;7.80;99.90;;;;;;5090821;28;20430;-72
2021/12/27 03:31:15;;;;;;;0.60;0.60;;;7.90;99.90;;;;;;5091911;28;20454;-72
2021/12/27 03:33:41;;;;;;;0.40;0.20;;;7.90;99.90;;;;;;5100983;28;20385;-72
2021/12/27 03:36:08;;;;;;;0.40;0.30;;;7.80;99.90;;;;;;5112145;28;20714;-72
2021/12/27 03:38:41;;;;;;;0.40;0.20;;;7.70;99.90;;;;;;5112034;28;20437;-72
2021/12/27 03:41:12;;;;;;;0.40;0.20;;;7.80;99.90;;;;;;5111867;27;20482;-72
2021/12/27 03:43:38;;;;;;;0.45;0.35;;;7.70;99.90;;;;;;5099871;28;20750;-72
2021/12/27 03:46:04;;;;;;;0.40;0.20;;;7.70;99.90;;;;;;5090718;28;20378;-72
2021/12/27 03:48:36;;;;;;;0.40;0.20;;;7.70;99.90;;;;;;5095779;28;20378;-72
2021/12/27 03:51:02;;;;;;;0.40;0.20;;;7.70;99.90;;;;;;5090350;28;20871;-72
2021/12/27 03:53:29;;;;;;;0.40;0.20;;;7.80;99.90;;;;;;5091442;28;20394;-72
2021/12/27 03:55:55;;;;;;;0.40;0.20;;;7.80;99.90;;;;;;5090441;28;20442;-72
2021/12/27 03:58:34;;;;;;;0.40;0.40;;;7.80;99.90;;;;;;5091282;28;20387;-72
2021/12/27 04:01:13;;;;;;;0.40;0.30;;;7.80;99.90;;;;;;5090737;28;20386;-72
2021/12/27 04:03:40;;;;;;;0.40;0.30;;;7.70;99.90;;;;;;5091092;28;20932;-72
2021/12/27 04:06:06;;;;;;;0.40;0.20;;;7.70;99.90;;;;;;5090696;28;20370;-72
2021/12/27 04:08:31;;;;;;;0.40;0.40;;;7.80;99.90;;;;;;5090313;28;20385;-72
2021/12/27 04:10:57;;;;;;;0.40;0.20;;;7.80;99.90;;;;;;5091544;28;20406;-72
2021/12/27 04:13:23;;;;;;;0.40;0.20;;;7.80;99.90;;;;;;5090228;28;20435;-72
2021/12/27 04:15:50;;;;;;;0.40;0.20;;;7.80;99.90;;;;;;5091053;28;20397;-72
2021/12/27 04:18:16;;;;;;;0.40;0.20;;;7.70;99.90;;;;;;5072270;28;20382;-72
2021/12/27 04:20:42;;;;;;;0.40;0.20;;;7.70;99.90;;;;;;5091098;28;20713;-72
2021/12/27 04:23:08;;;;;;;0.40;0.20;;;7.70;99.90;;;;;;5090708;28;20471;-72
2021/12/27 04:25:34;;;;;;;0.40;0.20;;;7.60;99.90;;;;;;5090624;28;20376;-72
2021/12/27 04:28:00;;;;;;;0.40;0.20;;;7.80;99.90;;;;;;5090623;28;20370;-72
2021/12/27 04:30:26;;;;;;;0.40;0.20;;;7.80;99.90;;;;;;5090492;28;20481;-72
2021/12/27 04:32:52;;;;;;;0.40;0.20;;;7.60;99.90;;;;;;5093922;28;20377;-72
2021/12/27 04:35:19;;;;;;;0.40;0.22;;;7.60;99.90;;;;;;5111241;28;20851;-74
2021/12/27 04:37:46;;;;;;;0.40;0.20;;;7.60;99.90;;;;;;5100213;28;20420;-72
2021/12/27 04:40:14;;;;;;;0.40;0.30;;;7.60;99.90;;;;;;5097666;28;20755;-72
2021/12/27 04:42:46;;;;;;;0.40;0.20;;;7.60;99.90;;;;;;5096454;28;21325;-72
2021/12/27 04:45:14;;;;;;;0.40;0.20;;;7.70;99.90;;;;;;5096740;28;20384;-71
2021/12/27 04:47:41;;;;;;;0.40;0.20;;;7.70;99.90;;;;;;5095791;28;20401;-73
2021/12/27 04:50:07;;;;;;;0.60;0.40;;;7.70;99.90;;;;;;5096998;28;20936;-72
2021/12/27 04:52:33;;;;;;;0.40;0.20;;;7.80;99.90;;;;;;5097038;28;20444;-72
2021/12/27 04:54:58;;;;;;;0.40;0.20;;;7.70;99.90;;;;;;5097048;28;20884;-72
2021/12/27 04:57:24;;;;;;;0.40;0.20;;;7.70;99.90;;;;;;5096453;28;20669;-72
2021/12/27 04:59:49;;;;;;;0.40;0.20;;;7.80;99.90;;;;;;5096110;28;20875;-72
2021/12/27 05:02:15;;;;;;;0.40;0.20;;;7.80;99.90;;;;;;5097317;28;20412;-72
2021/12/27 05:04:41;;;;;;;0.40;0.20;;;7.80;99.90;;;;;;5096522;28;20448;-72
2021/12/27 05:07:06;;;;;;;0.40;0.25;;;7.80;99.90;;;;;;5096178;28;20381;-72
2021/12/27 05:09:32;;;;;;;0.40;0.20;;;7.70;99.90;;;;;;5097030;28;20395;-72
2021/12/27 05:11:58;;;;;;;0.40;0.20;;;7.70;99.90;;;;;;5096279;28;20388;-73
2021/12/27 05:14:23;;;;;;;0.40;0.20;;;7.70;99.90;;;;;;5097307;28;20392;-73
2021/12/27 05:16:49;;;;;;;0.40;0.20;;;7.60;99.90;;;;;;5095968;28;20467;-72
2021/12/27 05:19:15;;;;;;;0.40;0.20;;;7.70;99.90;;;;;;5096547;28;20391;-70
2021/12/27 05:21:41;;;;;;;0.40;0.20;;;7.60;99.90;;;;;;5100984;28;20380;-73
2021/12/27 05:24:07;;;;;;;0.40;0.20;;;7.60;99.90;;;;;;5100068;28;20519;-73
2021/12/27 05:26:33;;;;;;;0.40;0.20;;;7.60;99.90;;;;;;5100815;28;20392;-71
2021/12/27 05:28:58;;;;;;;0.40;0.20;;;7.60;99.90;;;;;;5099259;28;20396;-71
2021/12/27 05:31:24;;;;;;;0.40;0.20;;;7.60;99.90;;;;;;5082356;28;20461;-71
2021/12/27 05:33:50;;;;;;;0.40;0.20;;;7.70;99.90;;;;;;5100405;28;20731;-72
2021/12/27 05:36:16;;;;;;;0.40;0.20;;;7.80;99.90;;;;;;5100083;28;20805;-71
2021/12/27 05:38:42;;;;;;;0.40;0.30;;;7.50;99.90;;;;;;5099612;28;20393;-71
2021/12/27 05:41:08;;;;;;;0.40;0.20;;;7.50;99.90;;;;;;5099719;28;20380;-72
2021/12/27 05:43:33;;;;;;;0.40;0.20;;;7.40;99.90;;;;;;5100413;28;20411;-71
2021/12/27 05:46:00;;;;;;;0.40;0.20;;;7.40;99.90;;;;;;5100604;28;20742;-72
2021/12/27 05:48:25;;;;;;;0.40;0.20;;;7.40;99.90;;;;;;5098374;28;20380;-72
2021/12/27 05:50:51;;;;;;;0.40;0.20;;;7.40;99.90;;;;;;5100991;28;20395;-72
2021/12/27 05:53:17;;;;;;;0.40;0.20;;;7.40;99.90;;;;;;5099919;28;20441;-71
2021/12/27 05:55:43;;;;;;;0.40;0.20;;;7.30;99.90;;;;;;5100244;28;20488;-72
2021/12/27 05:58:09;;;;;;;0.40;0.20;;;7.20;99.90;;;;;;5099491;28;20471;-71
2021/12/27 06:00:35;;;;;;;0.40;0.20;;;7.20;99.90;;;;;;5099589;28;20391;-71
2021/12/27 06:03:01;;;;;;;0.40;0.20;;;7.10;99.90;;;;;;5099594;28;20412;-72
2021/12/27 06:05:27;;;;;;;0.40;0.20;;;7.00;99.90;;;;;;5099501;28;20434;-72
2021/12/27 06:07:53;;;;;;;0.50;0.50;;;6.90;99.90;;;;;;5098379;28;20423;-72
2021/12/27 06:10:19;;;;;;;0.40;0.20;;;6.90;99.90;;;;;;5100359;28;20376;-71
2021/12/27 06:12:45;;;;;;;0.80;0.60;;;6.80;99.90;;;;;;5099731;28;20396;-72
2021/12/27 06:15:12;;;;;;;0.40;0.30;;;6.60;99.90;;;;;;5099524;28;20456;-71
2021/12/27 06:17:38;;;;;;;0.40;0.30;;;6.70;99.90;;;;;;5097721;28;20428;-72
2021/12/27 06:20:08;;;;;;;0.40;0.20;;;6.60;99.90;;;;;;5099929;28;21249;-72
2021/12/27 06:22:37;;;;;;;0.40;0.20;;;6.50;99.90;;;;;;5099945;28;20519;-71
2021/12/27 06:25:03;;;;;;;0.40;0.20;;;6.40;99.90;;;;;;5099369;28;20396;-71
2021/12/27 06:27:31;;;;;;;0.40;0.40;;;6.40;99.90;;;;;;5098790;28;20403;-71
2021/12/27 06:29:58;;;;;;;0.40;0.20;;;6.40;99.90;;;;;;5098970;28;20500;-71
2021/12/27 06:32:23;;;;;;;0.40;0.40;;;6.40;99.90;;;;;;5098465;28;20598;-71
2021/12/27 06:34:49;;;;;;;0.40;0.30;;;6.40;99.90;;;;;;5099030;28;20396;-71
2021/12/27 06:37:15;;;;;;;0.40;0.20;;;6.30;99.90;;;;;;5098116;28;20738;-72
2021/12/27 06:39:40;;;;;;;0.40;0.20;;;6.40;99.90;;;;;;5099259;28;20456;-71
2021/12/27 06:42:07;;;;;;;0.40;0.20;;;6.30;99.90;;;;;;5098566;28;20419;-71
2021/12/27 06:44:33;;;;;;;2.10;0.70;;;6.30;99.90;;;;;;5098842;28;20433;-71
2021/12/27 06:46:59;;;;;;;0.40;0.20;;;7.00;99.90;;;;;;5096160;27;20396;-72
2021/12/27 06:49:31;;;;;;;0.40;0.20;;;6.30;99.90;;;;;;5099193;28;20892;-72
2021/12/27 06:51:57;;;;;;;0.40;0.20;;;6.30;99.90;;;;;;5098791;28;20408;-72
2021/12/27 06:54:23;;;;;;;0.40;0.30;;;6.30;99.90;;;;;;5099135;28;21400;-71
2021/12/27 06:56:49;;;;;;;0.40;0.30;;;6.30;99.90;;;;;;5098593;28;20408;-71
2021/12/27 06:59:15;;;;;;;0.40;0.30;;;6.50;99.90;;;;;;5097282;28;20870;-71
2021/12/27 07:01:41;;;;;;;0.40;0.40;;;6.10;99.90;;;;;;5099023;28;20462;-71
2021/12/27 07:04:07;;;;;;;3.27;0.53;;;6.70;99.90;;;;;;5097965;28;20415;-72
2021/12/27 07:06:33;;;;;;;0.40;0.20;;;6.00;99.90;;;;;;5098770;28;20383;-71
2021/12/27 07:08:58;;;;;;;0.40;0.20;;;6.10;99.90;;;;;;5097535;28;20423;-72
2021/12/27 07:11:24;;;;;;;0.40;0.30;;;6.00;99.90;;;;;;5098214;28;20451;-72
2021/12/27 07:13:50;;;;;;;0.40;0.40;;;6.00;99.90;;;;;;5098653;28;20770;-72
2021/12/27 07:16:15;;;;;;;0.40;0.20;;;6.00;99.90;;;;;;5098612;28;20380;-72
2021/12/27 07:18:41;;;;;;;0.60;0.50;;;6.00;99.90;;;;;;5097466;28;20388;-72
2021/12/27 07:21:07;;;;;;;0.40;0.20;;;5.90;99.90;;;;;;5098716;28;20380;-71
2021/12/27 07:23:32;;;;;;;0.40;0.20;;;5.90;99.90;;;;;;5098082;28;20423;-72
2021/12/27 07:25:58;;;;;;;0.40;0.20;;;6.00;99.90;;;;;;5098297;28;20726;-72
2021/12/27 07:28:24;;;;;;;0.60;0.60;;;5.90;99.90;;;;;;5096529;28;20456;-71
2021/12/27 07:30:50;;;;;;;0.40;0.20;;;5.90;99.90;;;;;;5098299;28;20502;-72
2021/12/27 07:33:16;;;;;;;0.40;0.20;;;5.80;99.90;;;;;;5097867;28;20951;-72
2021/12/27 07:35:42;;;;;;;0.40;0.30;;;5.90;99.90;;;;;;5097721;28;20457;-72
2021/12/27 07:38:08;;;;;;;0.40;0.20;;;5.90;99.90;;;;;;5097271;28;20900;-71
2021/12/27 07:40:34;;;;;;;0.40;0.20;;;5.90;99.90;;;;;;5097522;28;20377;-71
2021/12/27 07:43:00;;;;;;;0.40;0.20;;;6.20;99.90;;;;;;5097629;28;20452;-71
2021/12/27 07:45:25;;;;;;;0.40;0.30;;;5.90;99.90;;;;;;5098283;28;20368;-71
2021/12/27 07:47:52;;;;;;;0.40;0.30;;;5.90;99.90;;;;;;5096193;28;20416;-71
2021/12/27 07:50:19;;;;;;;0.40;0.20;;;5.90;99.90;;;;;;5097912;28;20776;-71
2021/12/27 07:52:45;;;;;;;0.40;0.20;;;5.90;99.90;;;;;;5106773;28;20464;-71
2021/12/27 07:55:11;;;;;;;0.40;0.30;;;5.80;99.90;;;;;;5112765;28;20724;-71
2021/12/27 07:57:37;;;;;;;0.40;0.30;;;5.90;99.90;;;;;;5112549;28;20434;-71
2021/12/27 08:00:07;;;;;;;0.40;0.30;;;5.80;99.90;;;;;;5111412;28;20376;-71
2021/12/27 08:02:33;;;;;;;0.40;0.20;;;5.90;99.90;;;;;;5112097;28;20409;-71
2021/12/27 08:04:59;;;;;;;0.40;0.20;;;6.00;99.90;;;;;;5111277;28;20444;-71
2021/12/27 08:07:25;;;;;;;1.00;1.00;;;6.00;99.90;;;;;;5111985;28;20437;-71
2021/12/27 08:09:50;;;;;;;0.40;0.30;;;5.90;99.90;;;;;;5111299;28;20377;-72
2021/12/27 08:12:16;;;;;;;0.50;0.40;;;6.00;99.90;;;;;;5111773;28;20835;-71
2021/12/27 08:14:42;;;;;;;0.40;0.30;;;6.00;99.90;;;;;;5111905;28;20380;-71
2021/12/27 08:17:08;;;;;;;0.50;0.50;;;6.10;99.90;;;;;;5111193;28;20376;-72
2021/12/27 08:19:34;;;;;;;0.40;0.20;;;6.10;99.90;;;;;;5111503;28;20372;-72
2021/12/27 08:22:01;;;;;;;0.40;0.20;;;6.10;99.90;;;;;;5110773;28;20425;-73
2021/12/27 08:24:27;;;;;;;0.50;0.50;;;6.20;99.90;;;;;;5111790;28;20380;-72
2021/12/27 08:26:53;;;;;;;0.40;0.20;;;6.20;99.90;;;;;;5111497;28;20854;-71
2021/12/27 08:29:18;;;;;;;0.40;0.20;;;6.20;99.90;;;;;;5111027;28;20746;-72
2021/12/27 08:31:44;;;;;;;0.40;0.20;;;6.30;99.90;;;;;;5111718;28;20472;-71
2021/12/27 08:34:10;;;;;;;0.40;0.30;;;6.40;99.90;;;;;;5110795;28;20434;-71
2021/12/27 08:36:35;;;;;;;0.40;0.30;;;6.40;99.90;;;;;;5111648;28;20380;-71
2021/12/27 08:39:02;;;;;;;0.40;0.30;;;6.40;99.90;;;;;;5111599;28;20901;-72
2021/12/27 08:41:28;;;;;;;0.40;0.20;;;6.50;99.90;;;;;;5110883;28;20592;-72
2021/12/27 08:44:00;;;;;;;0.40;0.30;;;6.50;99.90;;;;;;5111349;28;20492;-73
2021/12/27 08:46:26;;;;;;;0.50;0.50;;;6.60;99.90;;;;;;5092947;28;20376;-73
2021/12/27 08:48:52;;;;;;;0.40;0.20;;;6.60;99.90;;;;;;5111476;28;20487;-72
2021/12/27 08:51:18;;;;;;;0.40;0.30;;;6.60;99.90;;;;;;5110927;28;20396;-73
2021/12/27 08:53:44;;;;;;;0.60;0.60;;;6.70;99.90;;;;;;5111448;28;20391;-73
2021/12/27 08:56:09;;;;;;;0.40;0.30;;;6.70;99.90;;;;;;5113473;28;20396;-72
2021/12/27 08:58:35;;;;;;;0.40;0.30;;;6.80;99.90;;;;;;5094697;28;20867;-73
2021/12/27 09:01:01;;;;;;;1.20;0.60;;;6.80;99.90;;;;;;5115071;28;20435;-72
2021/12/27 09:03:26;;;;;;;0.40;0.20;;;6.80;99.90;;;;;;5114658;28;20483;-73
2021/12/27 09:05:52;;;;;;;0.40;0.20;;;7.00;99.90;;;;;;5108396;28;20417;-72
2021/12/27 09:08:18;;;;;;;0.40;0.40;;;7.10;99.90;;;;;;5095079;28;20370;-72
2021/12/27 09:10:44;;;;;;;0.40;0.20;;;7.10;99.90;;;;;;5094404;28;20728;-73
2021/12/27 09:13:09;;;;;;;0.40;0.20;;;7.10;99.90;;;;;;5094816;28;20468;-73
2021/12/27 09:15:35;;;;;;;0.40;0.30;;;7.20;99.90;;;;;;5094610;28;20378;-73
2021/12/27 09:18:01;;;;;;;0.40;0.20;;;7.20;99.90;;;;;;5094888;28;20437;-73
2021/12/27 09:20:27;;;;;;;0.40;0.30;;;7.40;99.90;;;;;;5094553;28;20437;-73
2021/12/27 09:22:53;;;;;;;0.40;0.20;;;7.50;99.90;;;;;;5094011;28;20410;-72
2021/12/27 09:25:19;;;;;;;0.40;0.20;;;7.50;99.90;;;;;;5094259;28;20389;-72
2021/12/27 09:27:45;;;;;;;0.40;0.20;;;7.40;99.90;;;;;;5094314;28;20401;-72
2021/12/27 09:30:11;;;;;;;0.40;0.30;;;7.50;99.90;;;;;;5094153;28;20398;-73
2021/12/27 09:32:37;;;;;;;0.40;0.20;;;7.50;99.90;;;;;;5094571;28;20436;-73
2021/12/27 09:35:04;;;;;;;0.40;0.20;;;7.50;99.90;;;;;;5093926;28;20451;-73
2021/12/27 09:37:30;;;;;;;0.40;0.20;;;7.60;99.90;;;;;;5094625;28;20404;-73
2021/12/27 09:39:56;;;;;;;0.65;0.35;;;7.70;99.90;;;;;;5093483;28;20861;-73
2021/12/27 09:42:22;;;;;;;0.40;0.20;;;7.80;99.90;;;;;;5094137;28;20462;-72
2021/12/27 09:44:49;;;;;;;0.40;0.40;;;7.80;99.90;;;;;;5093656;28;20477;-73
2021/12/27 09:47:15;;;;;;;0.40;0.30;;;7.90;99.90;;;;;;5094573;28;20382;-73
2021/12/27 09:49:41;;;;;;;0.40;0.20;;;8.00;99.90;;;;;;5094065;28;20384;-73
2021/12/27 09:52:07;;;;;;;0.40;0.20;;;8.20;99.90;;;;;;5093564;28;20427;-73
2021/12/27 09:54:32;;;;;;;0.50;0.50;;;8.30;99.90;;;;;;5093635;28;20963;-73
2021/12/27 09:56:58;;;;;;;0.40;0.25;;;8.30;99.90;;;;;;5093564;28;20378;-73
2021/12/27 09:59:24;;;;;;;0.40;0.20;;;8.30;99.90;;;;;;5093879;28;20455;-73
2021/12/27 10:01:52;;;;;;;0.40;0.20;;;8.30;99.90;;;;;;5099556;28;20386;-73
2021/12/27 10:04:19;;;;;;;0.40;0.22;;;8.20;99.90;;;;;;5092672;28;20404;-72
2021/12/27 10:06:44;;;;;;;0.40;0.20;;;8.30;99.90;;;;;;5099982;28;20465;-72
2021/12/27 10:09:10;;;;;;;0.40;0.20;;;8.40;99.90;;;;;;5093478;28;20457;-72
2021/12/27 10:11:42;;;;;;;0.40;0.20;;;8.50;99.90;;;;;;5093399;28;20378;-72
2021/12/27 10:14:20;;;;;;;0.40;0.30;;;8.60;99.90;;;;;;5093020;28;20413;-72
2021/12/27 10:16:47;;;;;;;0.40;0.20;;;8.70;99.90;;;;;;5093835;28;20378;-72
2021/12/27 10:19:16;;;;;;;0.40;0.20;;;8.60;99.90;;;;;;5093131;28;20389;-72
2021/12/27 10:21:43;;;;;;;0.50;0.50;;;8.70;99.90;;;;;;5093738;28;20383;-72
2021/12/27 10:24:16;;;;;;;0.40;0.30;;;8.80;99.90;;;;;;5093469;28;20457;-72
2021/12/27 10:26:46;;;;;;;0.40;0.30;;;8.80;99.90;;;;;;5093531;28;20386;-72
2021/12/27 10:29:18;;;;;;;0.40;0.40;;;9.00;99.90;;;;;;5093589;28;20414;-71
2021/12/27 10:32:16;;;;;;;0.40;0.30;;;9.00;99.90;;;;;;5093105;28;20891;-71
2021/12/27 10:34:50;;;;;;;0.40;0.20;;;9.00;99.90;;;;;;5111245;28;20525;-72
2021/12/27 10:37:17;;;;;;;0.40;0.20;;;9.00;99.90;;;;;;5113818;28;20467;-72
2021/12/27 10:40:02;;;;;;;0.50;0.40;;;9.10;99.90;;;;;;5113085;28;20406;-72
2021/12/27 10:42:35;;;;;;;0.40;0.30;;;9.20;99.90;;;;;;5113010;28;20408;-72
2021/12/27 10:45:05;;;;;;;0.40;0.20;;;9.30;99.90;;;;;;5113566;28;20471;-72
2021/12/27 10:48:02;;;;;;;0.40;0.30;;;9.40;99.90;;;;;;5113151;28;20369;-72
2021/12/27 10:50:32;;;;;;;0.40;0.20;;;9.50;99.90;;;;;;5113518;28;20452;-71
2021/12/27 10:53:03;;;;;;;0.40;0.20;;;9.30;99.90;;;;;;5113389;28;20382;-72
2021/12/27 10:55:38;;;;;;;0.40;0.30;;;9.50;99.90;;;;;;5113243;28;20385;-73
2021/12/27 10:58:18;;;;;;;0.40;0.20;;;9.60;99.90;;;;;;5104995;28;20724;-72
2021/12/27 11:00:45;;;;;;;0.40;0.30;;;9.50;99.90;;;;;;5106764;28;20383;-72
2021/12/27 11:03:24;;;;;;;0.40;0.20;;;9.60;99.90;;;;;;5074386;28;20425;-72
2021/12/27 11:05:50;;;;;;;0.40;0.30;;;9.70;99.90;;;;;;5092125;28;20382;-72
2021/12/27 11:08:16;;;;;;;0.40;0.20;;;9.60;99.90;;;;;;5107492;28;20425;-72
2021/12/27 11:10:41;;;;;;;0.50;0.40;;;9.70;99.90;;;;;;5112344;28;20451;-73
2021/12/27 11:13:07;;;;;;;0.40;0.20;;;9.90;99.90;;;;;;5113228;28;20844;-72
2021/12/27 11:15:36;;;;;;;0.40;0.20;;;9.80;99.90;;;;;;5112686;28;20403;-72
2021/12/27 11:18:03;;;;;;;0.40;0.20;;;9.80;99.90;;;;;;5111845;28;20376;-72
2021/12/27 11:20:30;;;;;;;0.40;0.20;;;9.70;99.90;;;;;;5112859;28;20384;-72
2021/12/27 11:22:58;;;;;;;0.40;0.20;;;9.90;99.90;;;;;;5112259;28;20420;-73
2021/12/27 11:25:34;;;;;;;0.40;0.30;;;9.80;99.90;;;;;;5112294;28;20807;-72
2021/12/27 11:28:01;;;;;;;0.40;0.20;;;9.90;99.90;;;;;;5112358;28;20385;-72
2021/12/27 11:30:31;;;;;;;0.40;0.20;;;9.90;99.90;;;;;;5112251;28;20400;-72
2021/12/27 11:33:15;;;;;;;0.40;0.20;;;9.90;99.90;;;;;;5108257;28;20732;-73
2021/12/27 11:35:59;;;;;;;0.40;0.20;;;10.00;99.90;;;;;;5092059;28;20469;-72
2021/12/27 11:38:32;;;;;;;0.40;0.30;;;9.90;99.90;;;;;;5092182;28;20473;-73
2021/12/27 11:40:59;;;;;;;0.40;0.20;;;9.80;99.90;;;;;;5092021;28;20381;-73
2021/12/27 11:43:59;;;;;;;0.40;0.20;;;9.70;99.90;;;;;;5091989;28;20477;-73
2021/12/27 11:46:28;;;;;;;0.40;0.30;;;9.80;99.90;;;;;;5091029;28;20964;-73
2021/12/27 11:48:57;;;;;;;0.40;0.20;;;9.70;99.90;;;;;;5092224;28;20732;-71
2021/12/27 11:51:35;;;;;;;0.40;0.30;;;9.70;99.90;;;;;;5091334;28;20393;-73
2021/12/27 11:54:27;;;;;;;0.40;0.30;;;9.70;99.90;;;;;;5091975;28;20431;-73
2021/12/27 11:56:53;;;;;;;0.40;0.30;;;9.80;99.90;;;;;;5091661;28;20381;-72
2021/12/27 11:59:24;;;;;;;0.40;0.20;;;9.90;99.90;;;;;;5091164;28;20375;-73
2021/12/27 12:01:55;;;;;;;0.40;0.30;;;10.00;99.90;;;;;;5091630;28;20382;-73
2021/12/27 12:04:41;;;;;;;0.40;0.20;;;9.90;99.90;;;;;;5091086;28;20421;-72
2021/12/27 12:07:10;;;;;;;0.40;0.20;;;9.90;99.90;;;;;;5091503;28;20382;-72
2021/12/27 12:09:46;;;;;;;0.50;0.50;;;10.00;99.90;;;;;;5090869;28;20378;-72
2021/12/27 12:12:14;;;;;;;0.40;0.20;;;10.00;99.90;;;;;;5091182;28;20744;-71
2021/12/27 12:14:41;;;;;;;0.40;0.20;;;9.90;99.90;;;;;;5091310;28;20729;-72
2021/12/27 12:17:15;;;;;;;0.40;0.20;;;9.90;99.90;;;;;;5091429;28;20746;-72
2021/12/27 12:19:46;;;;;;;0.40;0.20;;;9.90;99.90;;;;;;5090680;28;20366;-72
2021/12/27 12:22:47;;;;;;;0.40;0.20;;;9.90;99.90;;;;;;5094471;28;20390;-72
2021/12/27 12:25:23;;;;;;;0.40;0.30;;;9.80;99.90;;;;;;5028209;28;20431;-72
2021/12/27 12:27:59;;;;;;;2.90;1.00;;;9.80;99.90;;;;;;5093312;27;20400;-72
2021/12/27 12:30:36;;;;;;;1.60;0.60;;;9.50;99.90;;;;;;5128644;27;20406;-73
2021/12/27 12:33:12;;;;;;;1.10;1.00;;;9.30;99.90;;;;;;5123692;27;21006;-72
2021/12/27 12:35:40;;;;;;;0.90;0.90;;;9.30;99.90;;;;;;5084344;28;20756;-72
2021/12/27 12:38:18;;;;;;;0.40;0.22;;;9.30;99.90;;;;;;5114119;27;20413;-71
2021/12/27 12:40:56;;;;;;;0.40;0.30;;;9.40;99.90;;;;;;5109963;27;20396;-72
2021/12/27 12:43:40;;;;;;;0.40;0.30;;;9.30;99.90;;;;;;5112746;28;20768;-72
2021/12/27 12:46:36;;;;;;;0.40;0.25;;;9.20;99.90;;;;;;5098291;28;20390;-72
2021/12/27 12:49:12;;;;;;;1.20;0.80;;;9.30;99.90;;;;;;5102671;28;20382;-71
2021/12/27 12:51:50;;;;;;;0.40;0.40;;;9.30;99.90;;;;;;5107017;28;20780;-72
2021/12/27 12:54:27;;;;;;;1.30;0.60;;;9.30;99.90;;;;;;5112026;28;20777;-72
2021/12/27 12:57:04;;;;;;;0.80;0.80;;;9.30;99.90;;;;;;5109126;28;20389;-72
2021/12/27 12:59:54;;;;;;;0.60;0.60;;;9.30;99.90;;;;;;5115400;28;20396;-72
2021/12/27 13:02:31;;;;;;;0.40;0.32;;;9.00;99.90;;;;;;5118017;28;20502;-71